< < Back
Terminal Aerodrome Forecast


Current Version              Previous Versions:   1  2  3  4  5  6  7  8  9  

Terminal Aerodrome Forecast

979
FTUS42 KMLB 281100
TAFMCO
TAF
KMCO 281124Z 2812/2912 25006KT P6SM FEW020 SCT250
     FM281500 26012KT P6SM SCT035 SCT250
     FM290100 25006KT P6SM FEW040 SCT250=

Latest METAR

410
SAUS70 KWBC 281800 RRI
MTRMCO
METAR KMCO 281753Z 26010KT 10SM SCT040CB BKN260 33/23 A3002 RMK AO2
SLP165 CB S-SW MOV E T03280233 10328 20261 58012


USA.gov is the U.S. government's official web portal to all federal, state and local government web resources and services.